Time;durP1;ratioP1;P1;durP2;ratioP2;P2;SDS_P1;SDS_P2;PMS_P1;PMS_P2;Temp;Humidity;BMP_temperature;BMP_pressure;BME280_temperature;BME280_humidity;BME280_pressure;Samples;Min_cycle;Max_cycle;Signal;HPM_P1;HPM_P2
2023/05/02 00:00:20;;;;;;;23.00;14.05;;;;;;;-146.25;98.01;52068.13;2087986;28;20911;-62
2023/05/02 00:01:21;;;;;;;24.52;15.40;;;;;;;-146.25;98.05;52084.34;2089402;28;30390;-62
2023/05/02 00:02:23;;;;;;;22.83;14.57;;;;;;;-146.25;98.63;52104.63;2089598;28;36797;-62
2023/05/02 00:03:28;;;;;;;22.33;14.07;;;;;;;-146.25;98.38;52092.44;2091309;28;20041;-62
2023/05/02 00:04:32;;;;;;;20.65;14.13;;;;;;;-146.25;98.68;52096.50;2090413;28;36584;-62
2023/05/02 00:05:34;;;;;;;20.63;14.10;;;;;;;-146.25;98.82;52116.78;2089698;28;34425;-63
2023/05/02 00:06:36;;;;;;;23.75;14.50;;;;;;;-146.25;98.78;52092.44;2081605;28;35323;-62
2023/05/02 00:07:37;;;;;;;24.77;15.13;;;;;;;-146.25;98.82;52110.69;2082260;28;34905;-62
2023/05/02 00:08:39;;;;;;;20.67;14.02;;;;;;;-146.25;99.19;52102.59;2082371;28;35136;-62
2023/05/02 00:09:41;;;;;;;22.15;14.52;;;;;;;-146.25;99.49;52096.50;2082393;28;34154;-62
2023/05/02 00:10:43;;;;;;;23.45;15.10;;;;;;;-146.25;99.80;52133.00;2082337;28;35515;-62
2023/05/02 00:11:45;;;;;;;22.85;14.80;;;;;;;-146.25;100.00;52092.44;2084253;28;34307;-62
2023/05/02 00:12:46;;;;;;;24.52;14.05;;;;;;;-146.25;100.00;52133.00;2083265;28;20037;-62
2023/05/02 00:13:48;;;;;;;19.73;13.65;;;;;;;-146.25;99.67;52082.31;2082099;28;36891;-62
2023/05/02 00:14:50;;;;;;;22.08;14.15;;;;;;;-146.25;99.46;52078.25;2082614;28;24724;-62
2023/05/02 00:15:51;;;;;;;22.95;14.10;;;;;;;-146.25;100.00;52062.03;2081930;28;36516;-62
2023/05/02 00:16:53;;;;;;;22.83;13.52;;;;;;;-146.25;100.00;52130.97;2082850;28;20033;-62
2023/05/02 00:17:58;;;;;;;23.88;14.50;;;;;;;-146.25;100.00;52112.72;2082574;28;33443;-62
2023/05/02 00:18:59;;;;;;;23.88;14.50;;;;;;;-146.25;100.00;52110.69;2081988;28;33643;-62
2023/05/02 00:20:03;;;;;;;21.23;14.02;;;;;;;-146.25;100.00;52074.22;2082535;28;33143;-62
2023/05/02 00:21:05;;;;;;;20.90;13.25;;;;;;;-146.25;100.00;52108.66;2082417;28;29142;-62
2023/05/02 00:22:07;;;;;;;26.92;14.75;;;;;;;-146.25;100.00;52092.44;2082332;28;29884;-62
2023/05/02 00:23:11;;;;;;;26.23;14.45;;;;;;;-146.25;100.00;52102.59;2082463;28;32959;-62
2023/05/02 00:24:12;;;;;;;22.45;13.55;;;;;;;-146.25;100.00;52092.44;2081432;28;33706;-62
2023/05/02 00:25:16;;;;;;;19.65;13.20;;;;;;;-146.25;99.74;52088.41;2081708;28;36300;-62
2023/05/02 00:26:17;;;;;;;24.00;14.20;;;;;;;-146.25;100.00;52110.69;2081993;28;35448;-62
2023/05/02 00:27:20;;;;;;;24.95;15.10;;;;;;;-146.25;100.00;52084.34;2082903;28;20108;-62
2023/05/02 00:28:22;;;;;;;22.48;14.43;;;;;;;-146.25;100.00;52074.22;2083416;28;20842;-62
2023/05/02 00:29:23;;;;;;;25.30;14.35;;;;;;;-146.25;100.00;52137.06;2082369;28;27515;-62
2023/05/02 00:30:25;;;;;;;25.98;14.52;;;;;;;-146.25;100.00;52112.72;2090149;28;26776;-62
2023/05/02 00:31:27;;;;;;;24.70;14.82;;;;;;;-146.25;100.00;52155.31;2089752;28;26484;-62
2023/05/02 00:32:29;;;;;;;25.60;15.88;;;;;;;-146.25;100.00;52143.13;2082250;28;26431;-62
2023/05/02 00:33:31;;;;;;;29.30;16.27;;;;;;;-146.25;100.00;52096.50;2082942;28;20034;-62
2023/05/02 00:34:32;;;;;;;25.50;15.27;;;;;;;-146.25;100.00;52092.44;2082102;28;30698;-62
2023/05/02 00:35:34;;;;;;;26.83;15.82;;;;;;;-146.25;100.00;52124.91;2081697;28;28807;-62
2023/05/02 00:36:36;;;;;;;26.50;15.93;;;;;;;-146.25;100.00;52088.41;2081758;28;28857;-62
2023/05/02 00:37:38;;;;;;;26.25;14.85;;;;;;;-146.25;100.00;52086.38;2081725;28;27215;-63
2023/05/02 00:38:39;;;;;;;29.08;16.30;;;;;;;-146.25;100.00;52080.28;2082387;28;20875;-62
2023/05/02 00:39:41;;;;;;;27.40;15.98;;;;;;;-146.25;100.00;52139.09;2082954;28;20030;-62
2023/05/02 00:40:47;;;;;;;24.85;14.65;;;;;;;-146.25;100.00;52096.50;2081839;28;30237;-62
2023/05/02 00:41:58;;;;;;;29.75;16.33;;;;;;;-146.25;100.00;52137.06;2082100;28;28086;-63
2023/05/02 00:43:00;;;;;;;26.88;14.45;;;;;;;-146.25;100.00;52102.59;2090282;28;20796;-62
2023/05/02 00:44:02;;;;;;;25.77;13.25;;;;;;;-146.25;100.00;52082.31;2090573;28;20434;-62
2023/05/02 00:45:05;;;;;;;22.05;13.60;;;;;;;-146.25;100.00;52126.91;2081854;28;31107;-62
2023/05/02 00:46:07;;;;;;;22.23;12.35;;;;;;;-146.25;100.00;52092.44;2089561;28;30705;-62
2023/05/02 00:47:11;;;;;;;18.73;12.07;;;;;;;-146.25;100.00;52076.22;2089982;28;20389;-62
2023/05/02 00:48:13;;;;;;;23.08;12.75;;;;;;;-146.25;100.00;52076.22;2081406;28;27828;-62
2023/05/02 00:49:15;;;;;;;20.08;11.85;;;;;;;-146.25;100.00;52130.97;2081776;28;32276;-63
2023/05/02 00:50:17;;;;;;;21.27;12.05;;;;;;;-146.25;100.00;52141.13;2082912;28;20049;-62
2023/05/02 00:51:19;;;;;;;19.85;11.85;;;;;;;-146.25;100.00;52126.91;2081379;28;26033;-62
2023/05/02 00:52:21;;;;;;;18.58;12.05;;;;;;;-146.25;100.00;52068.13;2081518;28;31689;-62
2023/05/02 00:53:22;;;;;;;18.77;10.90;;;;;;;-146.25;100.00;52108.66;2081884;28;20058;-62
2023/05/02 00:54:24;;;;;;;18.77;11.30;;;;;;;-146.25;100.00;52084.34;2081491;28;34068;-61
2023/05/02 00:55:26;;;;;;;20.08;11.40;;;;;;;-146.25;100.00;52147.19;2081570;28;27733;-62
2023/05/02 00:56:28;;;;;;;16.33;11.15;;;;;;;-146.25;100.00;52102.59;2081425;28;27054;-62
2023/05/02 00:57:30;;;;;;;19.77;11.57;;;;;;;-146.25;100.00;52088.41;2081716;28;31716;-62
2023/05/02 00:58:33;;;;;;;18.75;11.18;;;;;;;-146.25;100.00;52108.66;2073856;28;20104;-62
2023/05/02 00:59:36;;;;;;;18.13;11.93;;;;;;;-146.25;100.00;52098.53;2074326;28;24520;-63
2023/05/02 01:01:07;;;;;;;21.95;11.93;;;;;;;-146.25;100.00;52124.91;2073933;28;20035;-62
2023/05/02 01:02:38;;;;;;;19.02;10.93;;;;;;;-146.25;100.00;52098.53;2081513;28;26652;-62
2023/05/02 01:03:58;;;;;;;17.75;11.20;;;;;;;-146.25;100.00;52096.50;2077525;28;26696;-62
2023/05/02 01:06:04;;;;;;;22.10;11.55;;;;;;;-146.25;100.00;52090.44;2081869;28;21204;-62
2023/05/02 01:07:45;;;;;;;18.92;10.38;;;;;;;-146.25;100.00;52110.69;2073126;28;20962;-62
2023/05/02 01:09:25;;;;;;;21.27;11.63;;;;;;;-146.25;100.00;52128.94;2078487;28;27355;-62
2023/05/02 01:11:02;;;;;;;21.95;11.35;;;;;;;-146.25;100.00;52094.47;2081330;28;20653;-62
2023/05/02 01:12:37;;;;;;;21.40;11.93;;;;;;;-146.25;100.00;52108.66;2073647;28;33514;-62
2023/05/02 01:13:42;;;;;;;23.40;11.20;;;;;;;-146.25;100.00;52130.97;2077905;28;30380;-62
2023/05/02 01:14:50;;;;;;;22.45;12.50;;;;;;;-146.25;100.00;52108.66;2072143;28;33134;-62
2023/05/02 01:15:55;;;;;;;24.00;12.25;;;;;;;-146.25;100.00;52124.91;2082539;28;20049;-62
2023/05/02 01:17:03;;;;;;;23.80;11.45;;;;;;;-146.25;100.00;52074.22;2080974;28;20049;-62
2023/05/02 01:18:09;;;;;;;24.35;12.30;;;;;;;-146.25;100.00;52120.84;2081493;28;20050;-62
2023/05/02 01:19:24;;;;;;;22.50;12.55;;;;;;;-146.25;100.00;52108.66;2080643;28;20168;-62
2023/05/02 01:20:31;;;;;;;25.60;12.52;;;;;;;-146.25;100.00;52102.59;2072162;28;22085;-62
2023/05/02 01:21:34;;;;;;;22.73;12.63;;;;;;;-146.25;100.00;52108.66;2064505;28;26928;-62
2023/05/02 01:22:41;;;;;;;21.52;11.82;;;;;;;-146.25;100.00;52108.66;2064614;28;33803;-62
2023/05/02 01:24:10;;;;;;;24.80;12.40;;;;;;;-146.25;100.00;52088.41;2073019;28;26320;-62
2023/05/02 01:25:38;;;;;;;23.95;11.80;;;;;;;-146.25;100.00;52092.44;2080676;28;25921;-62
2023/05/02 01:27:11;;;;;;;20.13;10.80;;;;;;;-146.25;100.00;52108.66;2071847;28;34271;-62
2023/05/02 01:28:47;;;;;;;20.48;10.45;;;;;;;-146.25;100.00;52133.00;2083408;28;20042;-63
2023/05/02 01:29:51;;;;;;;20.60;10.20;;;;;;;-146.25;100.00;52088.41;2079892;28;25034;-62
2023/05/02 01:30:55;;;;;;;18.00;10.07;;;;;;;-146.25;100.00;52082.31;2075870;28;20125;-62
2023/05/02 01:32:01;;;;;;;18.30;10.35;;;;;;;-146.25;100.00;52084.34;2080426;28;23197;-63
2023/05/02 01:33:05;;;;;;;16.70;10.07;;;;;;;-146.25;100.00;52082.31;2079817;28;31939;-62
2023/05/02 01:34:10;;;;;;;16.65;9.75;;;;;;;-146.25;100.00;52120.84;2080234;28;29384;-63
2023/05/02 01:35:16;;;;;;;17.10;8.75;;;;;;;-146.25;100.00;52135.03;2088331;28;20088;-61
2023/05/02 01:36:19;;;;;;;14.45;8.40;;;;;;;-146.25;100.00;52102.59;2088485;28;26932;-62
2023/05/02 01:37:23;;;;;;;14.38;8.90;;;;;;;-146.25;100.00;52096.50;2080280;28;23104;-62
2023/05/02 01:38:26;;;;;;;10.90;7.50;;;;;;;-146.25;100.00;52100.56;2080097;28;28415;-63
2023/05/02 01:39:29;;;;;;;11.57;6.65;;;;;;;-146.25;100.00;52098.53;2080049;28;28146;-63
2023/05/02 01:40:33;;;;;;;7.20;5.10;;;;;;;-146.25;100.00;52092.44;2071938;28;36002;-63
2023/05/02 01:41:38;;;;;;;11.43;6.43;;;;;;;-146.25;100.00;52104.63;2080703;28;29528;-63
2023/05/02 01:42:44;;;;;;;9.27;4.95;;;;;;;-146.25;100.00;52124.91;2087609;28;30895;-63
2023/05/02 01:43:47;;;;;;;6.53;3.30;;;;;;;-146.25;100.00;52118.81;2080812;28;20080;-64
2023/05/02 01:44:53;;;;;;;6.72;3.50;;;;;;;-146.25;100.00;52102.59;2072650;28;28197;-63
2023/05/02 01:45:57;;;;;;;6.00;3.00;;;;;;;-146.25;100.00;52076.22;2080779;28;30501;-63
2023/05/02 01:47:01;;;;;;;3.22;2.25;;;;;;;-146.25;100.00;52088.41;2079842;28;20919;-63
2023/05/02 01:48:06;;;;;;;3.85;1.85;;;;;;;-146.25;100.00;52118.81;2080069;28;34530;-63
2023/05/02 01:49:09;;;;;;;2.95;1.60;;;;;;;-146.25;100.00;52086.38;2088009;28;20034;-64
2023/05/02 01:50:16;;;;;;;2.00;1.48;;;;;;;-146.25;100.00;52147.19;2072045;28;20044;-64
2023/05/02 01:51:28;;;;;;;3.03;1.50;;;;;;;-146.25;100.00;52116.78;2065687;28;24284;-63
2023/05/02 01:52:30;;;;;;;2.17;1.40;;;;;;;-146.25;100.00;52110.69;2079619;28;33413;-63
2023/05/02 01:53:38;;;;;;;1.95;1.00;;;;;;;-146.25;100.00;52104.63;2080027;28;30350;-63
2023/05/02 01:54:41;;;;;;;2.65;1.10;;;;;;;-146.25;100.00;52108.66;2080980;28;34129;-63
2023/05/02 01:55:48;;;;;;;3.83;1.30;;;;;;;-146.25;100.00;52112.72;2079610;28;28354;-63
2023/05/02 01:56:51;;;;;;;1.98;1.17;;;;;;;-146.25;100.00;52102.59;2080990;28;26754;-63
2023/05/02 01:57:56;;;;;;;2.30;0.93;;;;;;;-146.25;100.00;52088.41;2079992;28;20848;-63
2023/05/02 01:59:01;;;;;;;1.85;0.75;;;;;;;-146.25;100.00;52066.09;2080218;28;20804;-63
2023/05/02 02:00:05;;;;;;;3.60;1.23;;;;;;;-146.25;100.00;52120.84;2080633;28;20041;-62
2023/05/02 02:01:14;;;;;;;;;;;;;;;-146.25;100.00;52100.56;2080892;28;20046;-63
2023/05/02 02:02:17;;;;;;;3.00;1.27;;;;;;;-146.25;100.00;52124.91;2087557;28;19928;-63
2023/05/02 02:03:21;;;;;;;5.18;1.63;;;;;;;-146.25;100.00;52092.44;2071866;28;20050;-63
2023/05/02 02:04:24;;;;;;;4.63;1.45;;;;;;;-146.25;100.00;52092.44;2064950;28;20043;-62
2023/05/02 02:05:30;;;;;;;6.00;1.50;;;;;;;-146.25;100.00;52090.44;2072693;28;27391;-63
2023/05/02 02:06:35;;;;;;;7.55;2.08;;;;;;;-146.25;100.00;52084.34;2072612;28;20147;-62
2023/05/02 02:07:37;;;;;;;9.18;2.72;;;;;;;-146.25;100.00;52139.09;2079655;28;32342;-63
2023/05/02 02:08:39;;;;;;;8.52;2.08;;;;;;;-146.25;100.00;52096.50;2072194;28;27178;-62
2023/05/02 02:09:41;;;;;;;6.32;2.38;;;;;;;-146.25;100.00;52090.44;2063622;28;21406;-62
2023/05/02 02:10:49;;;;;;;7.00;1.70;;;;;;;-146.25;100.00;52094.47;2063710;28;29360;-62
2023/05/02 02:12:14;;;;;;;8.20;2.47;;;;;;;-146.25;100.00;52147.19;2071815;28;24830;-62
2023/05/02 02:13:26;;;;;;;11.82;2.38;;;;;;;-146.25;100.00;52102.59;2067865;28;29913;-62
2023/05/02 02:14:40;;;;;;;5.95;1.85;;;;;;;-146.25;100.00;52110.69;2066393;28;20035;-62
2023/05/02 02:15:47;;;;;;;9.20;2.00;;;;;;;-146.25;100.00;52128.94;2073251;28;29259;-62
2023/05/02 02:16:54;;;;;;;13.95;2.78;;;;;;;-146.25;100.00;52100.56;2063681;28;20145;-62
2023/05/02 02:18:10;;;;;;;7.50;2.50;;;;;;;-146.25;100.00;52126.91;2065115;28;33918;-62
2023/05/02 02:19:14;;;;;;;9.50;2.75;;;;;;;-146.25;100.00;52104.63;2097808;22;27736;-68
2023/05/02 02:20:18;;;;;;;10.68;2.70;;;;;;;-146.25;100.00;52106.66;2089163;28;20041;-69
2023/05/02 02:21:22;;;;;;;11.32;2.92;;;;;;;-146.25;100.00;52149.22;2082264;28;36699;-69
2023/05/02 02:22:27;;;;;;;11.40;3.10;;;;;;;-146.25;100.00;52120.84;2080320;28;20046;-69
2023/05/02 02:23:33;;;;;;;9.98;2.63;;;;;;;-146.25;100.00;52159.34;2088602;28;21242;-69
2023/05/02 02:24:38;;;;;;;7.63;3.17;;;;;;;-146.25;100.00;52143.13;2079714;28;32159;-70
2023/05/02 02:25:40;;;;;;;10.52;2.95;;;;;;;-146.25;100.00;52072.19;2081285;28;20080;-70
2023/05/02 02:26:42;;;;;;;12.18;3.30;;;;;;;-146.25;100.00;52116.78;2087882;28;32177;-68
2023/05/02 02:27:46;;;;;;;11.15;2.88;;;;;;;-146.25;100.00;52110.69;2088095;28;20046;-68
2023/05/02 02:28:48;;;;;;;9.10;3.00;;;;;;;-146.25;100.00;52133.00;2088274;28;29437;-66
2023/05/02 02:29:50;;;;;;;9.63;2.78;;;;;;;-146.25;100.00;52120.84;2087609;28;29461;-69
2023/05/02 02:30:52;;;;;;;11.18;3.00;;;;;;;-146.25;100.00;52108.66;2087678;28;28820;-67
2023/05/02 02:31:53;;;;;;;15.00;3.70;;;;;;;-146.25;100.00;52139.09;2087131;28;22803;-69
2023/05/02 02:32:55;;;;;;;14.68;2.97;;;;;;;-146.25;100.00;52143.13;2079649;28;25855;-70
2023/05/02 02:33:58;;;;;;;8.70;2.80;;;;;;;-146.25;100.00;52100.56;2088636;28;20811;-70
2023/05/02 02:35:02;;;;;;;14.73;3.35;;;;;;;-146.25;100.00;52098.53;2087632;28;26321;-69
2023/05/02 02:36:17;;;;;;;14.32;2.80;;;;;;;-146.25;100.00;52104.63;2067006;28;31173;-70
2023/05/02 02:37:29;;;;;;;15.10;3.08;;;;;;;-146.25;100.00;52108.66;2074084;28;21717;-69
2023/05/02 02:38:44;;;;;;;17.13;3.42;;;;;;;-146.25;100.00;52104.63;2071278;28;38749;-69
2023/05/02 02:40:16;;;;;;;12.35;3.00;;;;;;;-146.25;100.00;52114.75;2066716;28;30525;-67
2023/05/02 02:41:27;;;;;;;12.27;2.75;;;;;;;-146.25;100.00;52157.34;2076922;28;38177;-69
2023/05/02 02:42:39;;;;;;;11.93;2.38;;;;;;;-146.25;100.00;52126.91;2079506;28;29662;-69
2023/05/02 02:44:11;;;;;;;14.10;2.30;;;;;;;-146.25;100.00;52149.22;2080299;28;23020;-69
2023/05/02 02:46:00;;;;;;;13.95;2.78;;;;;;;-146.25;100.00;52106.66;2080169;28;22239;-69
2023/05/02 02:47:25;;;;;;;10.48;2.53;;;;;;;-146.25;100.00;52118.81;2077558;28;31729;-69
2023/05/02 02:48:52;;;;;;;13.27;2.63;;;;;;;-146.25;100.00;52124.91;2086727;28;27755;-69
2023/05/02 02:50:17;;;;;;;11.68;2.30;;;;;;;-146.25;100.00;52153.28;2083585;28;20985;-69
2023/05/02 02:51:23;;;;;;;10.27;2.08;;;;;;;-146.25;100.00;52106.66;2072558;28;32093;-69
2023/05/02 02:52:45;;;;;;;11.77;1.92;;;;;;;-146.25;100.00;52175.56;2079458;28;31267;-69
2023/05/02 02:54:08;;;;;;;12.57;1.80;;;;;;;-146.25;100.00;52145.16;2084696;28;36607;-69
2023/05/02 02:55:52;;;;;;;10.30;2.38;;;;;;;-146.25;100.00;52126.91;2079382;28;27014;-68
2023/05/02 02:57:24;;;;;;;18.08;2.40;;;;;;;-146.25;100.00;52124.91;2075275;28;32422;-68
2023/05/02 02:58:31;;;;;;;12.02;2.40;;;;;;;-146.25;100.00;52094.47;2080778;28;29644;-68
2023/05/02 02:59:40;;;;;;;13.05;2.53;;;;;;;-146.25;100.00;52153.28;2079336;28;25816;-68
2023/05/02 03:00:44;;;;;;;17.48;2.47;;;;;;;-146.25;100.00;52124.91;2072810;28;20081;-68
2023/05/02 03:02:01;;;;;;;13.05;2.30;;;;;;;-146.25;100.00;52122.88;2071168;28;30498;-68
2023/05/02 03:03:05;;;;;;;11.68;2.33;;;;;;;-146.25;100.00;52133.00;2079737;28;28509;-69
2023/05/02 03:04:09;;;;;;;12.65;2.97;;;;;;;-146.25;100.00;52072.19;2071013;28;28319;-68
2023/05/02 03:05:12;;;;;;;11.82;2.97;;;;;;;-146.25;100.00;52106.66;2072522;28;30290;-68
2023/05/02 03:06:16;;;;;;;14.32;3.17;;;;;;;-146.25;100.00;52102.59;2079567;28;20091;-68
2023/05/02 03:07:18;;;;;;;17.48;3.00;;;;;;;-146.25;100.00;52106.66;2063851;28;20949;-68
2023/05/02 03:08:20;;;;;;;20.40;2.92;;;;;;;-146.25;100.00;52126.91;2071077;28;22216;-69
2023/05/02 03:09:22;;;;;;;20.38;3.47;;;;;;;-146.25;100.00;52141.13;2079863;28;23916;-68
2023/05/02 03:10:25;;;;;;;18.88;2.72;;;;;;;-146.25;100.00;52130.97;2087690;28;20038;-69
2023/05/02 03:11:27;;;;;;;16.48;3.92;;;;;;;-146.25;100.00;52130.97;2079785;28;20049;-68
2023/05/02 03:12:31;;;;;;;21.63;3.60;;;;;;;-146.25;100.00;52135.03;2071744;28;20050;-68
2023/05/02 03:13:33;;;;;;;19.10;3.35;;;;;;;-146.25;100.00;52149.22;2071285;28;21035;-68
2023/05/02 03:14:39;;;;;;;20.08;3.50;;;;;;;-146.25;100.00;52153.28;2071354;28;20039;-68
2023/05/02 03:15:50;;;;;;;17.75;2.88;;;;;;;-146.25;100.00;52098.53;2079791;28;27044;-68
2023/05/02 03:16:56;;;;;;;23.27;3.38;;;;;;;-146.25;100.00;52137.06;2079577;28;20866;-68
2023/05/02 03:17:58;;;;;;;16.27;3.20;;;;;;;-146.25;100.00;52088.41;2071434;28;20104;-68
2023/05/02 03:19:00;;;;;;;16.92;3.08;;;;;;;-146.25;100.00;52149.22;2079792;28;20042;-68
2023/05/02 03:20:02;;;;;;;22.25;3.50;;;;;;;-146.25;100.00;52128.94;2080594;28;21543;-68
2023/05/02 03:21:06;;;;;;;21.67;2.97;;;;;;;-146.25;100.00;52086.38;2079623;28;30606;-69
2023/05/02 03:22:11;;;;;;;17.25;3.00;;;;;;;-146.25;100.00;52149.22;2079758;28;20046;-68
2023/05/02 03:23:13;;;;;;;19.25;3.40;;;;;;;-146.25;99.31;52112.72;2071608;28;20160;-68
2023/05/02 03:24:15;;;;;;;21.85;3.38;;;;;;;-146.25;97.86;52084.34;2079989;28;20884;-68
2023/05/02 03:25:19;;;;;;;21.92;3.20;;;;;;;-146.25;98.10;52143.13;2079680;28;20972;-68
2023/05/02 03:26:23;;;;;;;13.88;2.50;;;;;;;-146.25;97.22;52114.75;2071405;28;20049;-68
2023/05/02 03:27:27;;;;;;;16.23;2.78;;;;;;;-146.25;95.41;52153.28;2071817;28;20824;-68
2023/05/02 03:28:29;;;;;;;14.90;2.60;;;;;;;-146.25;95.10;52064.06;2071573;28;20206;-69
2023/05/02 03:29:31;;;;;;;15.90;2.25;;;;;;;-146.25;94.86;52070.16;2079638;28;20105;-68
2023/05/02 03:30:32;;;;;;;11.73;2.80;;;;;;;-146.25;94.26;52084.34;2079395;28;20042;-68
2023/05/02 03:31:34;;;;;;;14.27;2.38;;;;;;;-146.25;94.10;52126.91;2070642;28;20919;-68
2023/05/02 03:32:36;;;;;;;13.52;2.00;;;;;;;-146.25;93.41;52130.97;2079470;28;20054;-68
2023/05/02 03:33:38;;;;;;;13.18;2.30;;;;;;;-146.25;93.93;52100.56;2079671;28;20034;-68
2023/05/02 03:34:40;;;;;;;15.02;2.10;;;;;;;-146.25;92.85;52110.69;2079875;28;20046;-68
2023/05/02 03:35:43;;;;;;;18.52;2.53;;;;;;;-146.25;92.45;52137.06;2070638;28;20045;-68
2023/05/02 03:36:46;;;;;;;12.85;2.28;;;;;;;-146.25;93.19;52126.91;2063838;28;20054;-68
2023/05/02 03:37:50;;;;;;;17.25;2.47;;;;;;;-146.25;93.03;52143.13;2071127;28;28506;-68
2023/05/02 03:38:52;;;;;;;13.38;2.67;;;;;;;-146.25;92.77;52161.38;2071881;28;20832;-68
2023/05/02 03:39:54;;;;;;;15.18;2.25;;;;;;;-146.25;92.57;52114.75;2071514;28;20038;-68
2023/05/02 03:40:57;;;;;;;12.13;1.80;;;;;;;-146.25;93.04;52086.38;2071458;28;21096;-68
2023/05/02 03:42:00;;;;;;;17.52;2.78;;;;;;;-146.25;92.07;52096.50;2071526;28;20054;-68
2023/05/02 03:43:02;;;;;;;20.60;2.67;;;;;;;-146.25;90.28;52133.00;2071125;28;20050;-68
2023/05/02 03:44:06;;;;;;;15.88;2.22;;;;;;;-146.25;90.66;52086.38;2063768;28;20245;-68
2023/05/02 03:45:09;;;;;;;17.30;2.60;;;;;;;-146.25;91.30;52108.66;2071250;28;20407;-68
2023/05/02 03:46:13;;;;;;;14.52;2.40;;;;;;;-146.25;90.97;52120.84;2071448;28;20871;-68
2023/05/02 03:47:18;;;;;;;21.77;2.92;;;;;;;-146.25;91.11;52118.81;2063653;28;20038;-68
2023/05/02 03:48:20;;;;;;;17.92;2.50;;;;;;;-146.25;90.53;52120.84;2063184;28;20043;-68
2023/05/02 03:49:22;;;;;;;21.17;3.38;;;;;;;-146.25;90.98;52088.41;2063297;28;20150;-68
2023/05/02 03:50:28;;;;;;;26.17;2.85;;;;;;;-146.25;91.62;52143.13;2071823;28;20053;-68
2023/05/02 03:51:32;;;;;;;11.77;2.05;;;;;;;-146.25;90.82;52084.34;2071125;28;25840;-68
2023/05/02 03:52:34;;;;;;;17.77;2.28;;;;;;;-146.25;89.76;52086.38;2071566;28;20031;-68
2023/05/02 03:53:39;;;;;;;20.55;2.40;;;;;;;-146.25;88.86;52153.28;2063177;28;20051;-68
2023/05/02 03:54:43;;;;;;;11.30;2.28;;;;;;;-146.25;89.61;52106.66;2064443;28;20101;-68
2023/05/02 03:55:46;;;;;;;22.33;2.83;;;;;;;-146.25;89.57;52106.66;2063282;28;20039;-67
2023/05/02 03:56:58;;;;;;;12.77;2.42;;;;;;;-146.25;89.97;52135.03;2066189;28;20118;-68
2023/05/02 03:58:06;;;;;;;16.23;2.50;;;;;;;-146.25;89.51;52155.31;2071101;28;20796;-68
2023/05/02 03:59:08;;;;;;;18.45;2.30;;;;;;;-146.25;89.76;52104.63;2071698;28;20120;-68
2023/05/02 04:00:11;;;;;;;13.85;2.30;;;;;;;-146.25;90.35;52108.66;2079270;28;28925;-69
2023/05/02 04:01:14;;;;;;;19.52;2.45;;;;;;;-146.25;89.54;52157.34;2071167;28;44078;-67
2023/05/02 04:02:19;;;;;;;17.38;2.85;;;;;;;-146.25;89.00;52165.44;2079023;28;20053;-67
2023/05/02 04:03:22;;;;;;;16.77;2.33;;;;;;;-146.25;89.04;52100.56;2071236;28;20898;-67
2023/05/02 04:04:24;;;;;;;12.57;2.13;;;;;;;-146.25;88.72;52137.06;2070686;28;24613;-67
2023/05/02 04:05:28;;;;;;;16.65;2.65;;;;;;;-146.25;89.18;52155.31;2063595;28;20050;-68
2023/05/02 04:06:30;;;;;;;13.70;1.90;;;;;;;-146.25;89.07;52088.41;2071902;28;21139;-68
2023/05/02 04:07:36;;;;;;;21.13;2.25;;;;;;;-146.25;89.35;52130.97;2087638;28;20085;-68
2023/05/02 04:08:40;;;;;;;16.17;2.47;;;;;;;-146.25;90.13;52133.00;2079065;28;20196;-69
2023/05/02 04:09:42;;;;;;;16.77;2.58;;;;;;;-146.25;89.76;52169.50;2079642;28;21189;-69
2023/05/02 04:10:45;;;;;;;12.48;2.10;;;;;;;-146.25;90.00;52167.47;2070903;28;20109;-69
2023/05/02 04:11:50;;;;;;;17.52;3.03;;;;;;;-146.25;89.99;52139.09;2064128;28;20070;-69
2023/05/02 04:12:52;;;;;;;19.98;2.50;;;;;;;-146.25;89.90;52157.34;2079085;28;25653;-69
2023/05/02 04:13:57;;;;;;;17.13;2.67;;;;;;;-146.25;89.58;52102.59;2079084;28;20049;-69
2023/05/02 04:15:00;;;;;;;12.68;2.63;;;;;;;-146.25;89.47;52155.31;2071369;28;20905;-68
2023/05/02 04:16:04;;;;;;;13.07;2.67;;;;;;;-146.25;89.76;52135.03;2079247;28;20992;-68
2023/05/02 04:17:08;;;;;;;15.43;2.58;;;;;;;-146.25;89.65;52122.88;2079077;28;20084;-69
2023/05/02 04:18:18;;;;;;;16.40;2.55;;;;;;;-146.25;89.65;52124.91;2080517;28;20042;-69
2023/05/02 04:19:20;;;;;;;12.07;2.58;;;;;;;-146.25;89.57;52135.03;2078913;28;20057;-71
2023/05/02 04:20:22;;;;;;;15.20;2.63;;;;;;;-146.25;89.76;52139.09;2079155;28;20069;-69
2023/05/02 04:21:26;;;;;;;16.35;2.55;;;;;;;-146.25;89.61;52143.13;2071529;28;20173;-69
2023/05/02 04:22:28;;;;;;;17.75;2.70;;;;;;;-146.25;89.19;52120.84;2071022;28;20062;-69
2023/05/02 04:23:33;;;;;;;17.45;2.67;;;;;;;-146.25;89.04;52120.84;2079865;28;20038;-68
2023/05/02 04:24:36;;;;;;;17.23;2.72;;;;;;;-146.25;89.16;52157.34;2079542;28;20878;-69
2023/05/02 04:25:38;;;;;;;18.27;2.85;;;;;;;-146.25;89.07;52133.00;2079363;28;20148;-69
2023/05/02 04:26:40;;;;;;;18.08;2.80;;;;;;;-146.25;88.62;52128.94;2079129;28;21002;-67
2023/05/02 04:27:46;;;;;;;15.95;2.50;;;;;;;-146.25;88.94;52133.00;2071838;28;20046;-69
2023/05/02 04:28:50;;;;;;;14.27;2.28;;;;;;;-146.25;89.15;52112.72;2079273;28;20164;-68
2023/05/02 04:29:53;;;;;;;21.60;3.40;;;;;;;-146.25;89.12;52126.91;2079135;28;20085;-67
2023/05/02 04:30:56;;;;;;;17.00;2.60;;;;;;;-146.25;89.08;52120.84;2079383;28;20895;-68
2023/05/02 04:32:00;;;;;;;11.93;2.53;;;;;;;-146.25;89.35;52128.94;2070740;28;20046;-68
2023/05/02 04:33:03;;;;;;;16.42;2.70;;;;;;;-146.25;88.84;52104.63;2063881;28;20051;-68
2023/05/02 04:34:09;;;;;;;15.68;2.80;;;;;;;-146.25;88.72;52151.25;2071818;28;20896;-69
2023/05/02 04:35:16;;;;;;;16.00;2.60;;;;;;;-146.25;89.57;52147.19;2071904;28;20137;-69
2023/05/02 04:36:18;;;;;;;19.98;2.90;;;;;;;-146.25;89.19;52175.56;2071008;28;20051;-69
2023/05/02 04:37:20;;;;;;;20.95;2.80;;;;;;;-146.25;88.58;52116.78;2071000;28;20042;-68
2023/05/02 04:38:23;;;;;;;11.52;2.40;;;;;;;-146.25;88.78;52112.72;2078883;28;20034;-69
2023/05/02 04:39:25;;;;;;;18.00;3.03;;;;;;;-146.25;88.33;52165.44;2078436;28;20042;-69
2023/05/02 04:40:35;;;;;;;12.68;3.00;;;;;;;-146.25;87.98;52122.88;2078756;28;20148;-69
2023/05/02 04:41:40;;;;;;;13.35;2.63;;;;;;;-146.25;88.35;52151.25;2070528;28;20045;-69
2023/05/02 04:42:43;;;;;;;16.33;2.72;;;;;;;-146.25;88.51;52151.25;2070912;28;21459;-69
2023/05/02 04:43:55;;;;;;;16.80;2.70;;;;;;;-146.25;88.46;52153.28;2078630;28;20046;-69
2023/05/02 04:44:56;;;;;;;20.55;3.45;;;;;;;-146.25;88.37;52120.84;2078947;28;20922;-69
2023/05/02 04:45:58;;;;;;;16.25;2.72;;;;;;;-146.25;88.04;52126.91;2070756;28;20050;-69
2023/05/02 04:47:04;;;;;;;15.52;2.40;;;;;;;-146.25;87.94;52141.13;2062756;28;20046;-69
2023/05/02 04:48:06;;;;;;;18.25;2.88;;;;;;;-146.25;87.94;52133.00;2071416;28;31536;-69
2023/05/02 04:49:09;;;;;;;17.98;2.60;;;;;;;-146.25;87.89;52114.75;2073283;28;23611;-68
2023/05/02 04:50:10;;;;;;;15.63;2.42;;;;;;;-146.25;88.07;52126.91;2072940;28;25067;-68
2023/05/02 04:51:12;;;;;;;14.48;2.80;;;;;;;-146.25;88.12;52120.84;2071881;28;32762;-67
2023/05/02 04:52:18;;;;;;;20.92;2.78;;;;;;;-146.25;88.04;52076.22;2072973;28;20154;-68
2023/05/02 04:53:24;;;;;;;18.10;2.38;;;;;;;-146.25;88.15;52163.41;2080358;28;22716;-68
2023/05/02 04:54:31;;;;;;;16.85;2.65;;;;;;;-146.25;87.69;52114.75;2072625;28;20038;-68
2023/05/02 04:55:33;;;;;;;14.63;2.47;;;;;;;-146.25;87.59;52116.78;2073053;28;20945;-67
2023/05/02 04:56:35;;;;;;;15.52;2.90;;;;;;;-146.25;86.98;52122.88;2079986;28;25404;-68
2023/05/02 04:57:38;;;;;;;11.88;1.90;;;;;;;-146.25;87.00;52120.84;2072795;28;20128;-66
2023/05/02 04:58:42;;;;;;;13.32;2.08;;;;;;;-146.25;87.47;52147.19;2072313;28;20934;-68
2023/05/02 04:59:46;;;;;;;14.82;2.15;;;;;;;-146.25;87.28;52157.34;2072498;28;20101;-67